sensor_id;sensor_type;location;lat;lon;timestamp;temperature;humidity
73322;DHT22;61549;37.044;22.128;2023-03-01T00:02:21;19.00;44.40
73322;DHT22;61549;37.044;22.128;2023-03-01T00:04:47;19.00;44.20
73322;DHT22;61549;37.044;22.128;2023-03-01T00:07:13;19.00;44.00
73322;DHT22;61549;37.044;22.128;2023-03-01T00:09:39;19.00;43.90
73322;DHT22;61549;37.044;22.128;2023-03-01T00:12:06;18.90;44.10
73322;DHT22;61549;37.044;22.128;2023-03-01T00:14:32;18.90;43.90
73322;DHT22;61549;37.044;22.128;2023-03-01T00:16:57;18.90;44.30
73322;DHT22;61549;37.044;22.128;2023-03-01T00:19:24;18.80;43.70
73322;DHT22;61549;37.044;22.128;2023-03-01T00:21:50;18.80;43.70
73322;DHT22;61549;37.044;22.128;2023-03-01T00:24:16;18.80;43.70
73322;DHT22;61549;37.044;22.128;2023-03-01T00:26:42;18.80;43.80
73322;DHT22;61549;37.044;22.128;2023-03-01T00:29:08;18.80;43.90
73322;DHT22;61549;37.044;22.128;2023-03-01T00:31:34;18.80;43.90
73322;DHT22;61549;37.044;22.128;2023-03-01T00:34:03;18.90;44.50
73322;DHT22;61549;37.044;22.128;2023-03-01T00:36:32;18.90;44.00
73322;DHT22;61549;37.044;22.128;2023-03-01T00:38:58;18.90;43.80
73322;DHT22;61549;37.044;22.128;2023-03-01T00:41:25;18.90;43.80
73322;DHT22;61549;37.044;22.128;2023-03-01T00:43:52;18.80;43.60
73322;DHT22;61549;37.044;22.128;2023-03-01T00:46:21;18.80;43.80
73322;DHT22;61549;37.044;22.128;2023-03-01T00:48:48;18.80;43.90
73322;DHT22;61549;37.044;22.128;2023-03-01T00:51:19;18.80;44.00
73322;DHT22;61549;37.044;22.128;2023-03-01T00:53:45;18.80;44.00
73322;DHT22;61549;37.044;22.128;2023-03-01T00:56:14;18.70;44.20
73322;DHT22;61549;37.044;22.128;2023-03-01T00:58:40;18.70;44.10
73322;DHT22;61549;37.044;22.128;2023-03-01T01:01:10;18.70;44.20
73322;DHT22;61549;37.044;22.128;2023-03-01T01:03:44;18.70;44.40
73322;DHT22;61549;37.044;22.128;2023-03-01T01:06:25;18.70;44.30
73322;DHT22;61549;37.044;22.128;2023-03-01T01:08:52;18.70;44.30
73322;DHT22;61549;37.044;22.128;2023-03-01T01:11:20;18.70;44.30
73322;DHT22;61549;37.044;22.128;2023-03-01T01:13:47;18.70;44.30
73322;DHT22;61549;37.044;22.128;2023-03-01T01:16:15;18.70;44.10
73322;DHT22;61549;37.044;22.128;2023-03-01T01:18:41;18.70;44.10
73322;DHT22;61549;37.044;22.128;2023-03-01T01:21:09;18.70;44.30
73322;DHT22;61549;37.044;22.128;2023-03-01T01:23:37;18.70;44.30
73322;DHT22;61549;37.044;22.128;2023-03-01T01:26:08;18.70;44.10
73322;DHT22;61549;37.044;22.128;2023-03-01T01:28:34;18.60;44.10
73322;DHT22;61549;37.044;22.128;2023-03-01T01:31:01;18.60;44.40
73322;DHT22;61549;37.044;22.128;2023-03-01T01:33:27;18.50;44.30
73322;DHT22;61549;37.044;22.128;2023-03-01T01:35:53;18.50;44.30
73322;DHT22;61549;37.044;22.128;2023-03-01T01:38:19;18.50;44.70
73322;DHT22;61549;37.044;22.128;2023-03-01T01:40:46;18.50;45.00
73322;DHT22;61549;37.044;22.128;2023-03-01T01:45:45;18.50;45.50
73322;DHT22;61549;37.044;22.128;2023-03-01T01:48:14;18.50;45.30
73322;DHT22;61549;37.044;22.128;2023-03-01T01:50:42;18.40;45.40
73322;DHT22;61549;37.044;22.128;2023-03-01T01:53:14;18.30;44.80
73322;DHT22;61549;37.044;22.128;2023-03-01T01:55:44;18.10;45.20
73322;DHT22;61549;37.044;22.128;2023-03-01T01:58:13;18.10;45.40
73322;DHT22;61549;37.044;22.128;2023-03-01T02:00:41;18.20;45.50
73322;DHT22;61549;37.044;22.128;2023-03-01T02:03:11;18.30;45.50
73322;DHT22;61549;37.044;22.128;2023-03-01T02:05:55;18.40;45.30
73322;DHT22;61549;37.044;22.128;2023-03-01T02:08:26;18.50;45.50
73322;DHT22;61549;37.044;22.128;2023-03-01T02:11:10;18.40;45.70
73322;DHT22;61549;37.044;22.128;2023-03-01T02:13:36;18.40;45.10
73322;DHT22;61549;37.044;22.128;2023-03-01T02:16:04;18.40;45.00
73322;DHT22;61549;37.044;22.128;2023-03-01T02:18:30;18.30;45.10
73322;DHT22;61549;37.044;22.128;2023-03-01T02:23:31;18.20;45.10
73322;DHT22;61549;37.044;22.128;2023-03-01T02:28:48;18.20;45.20
73322;DHT22;61549;37.044;22.128;2023-03-01T02:31:17;18.10;44.90
73322;DHT22;61549;37.044;22.128;2023-03-01T02:34:03;18.20;44.90
73322;DHT22;61549;37.044;22.128;2023-03-01T02:36:43;18.10;45.10
73322;DHT22;61549;37.044;22.128;2023-03-01T02:42:28;18.20;45.10
73322;DHT22;61549;37.044;22.128;2023-03-01T02:44:56;18.10;45.40
73322;DHT22;61549;37.044;22.128;2023-03-01T02:47:22;18.10;45.20
73322;DHT22;61549;37.044;22.128;2023-03-01T02:49:47;18.00;45.20
73322;DHT22;61549;37.044;22.128;2023-03-01T02:55:21;17.90;45.30
73322;DHT22;61549;37.044;22.128;2023-03-01T02:57:47;17.90;45.60
73322;DHT22;61549;37.044;22.128;2023-03-01T03:00:23;18.00;45.70
73322;DHT22;61549;37.044;22.128;2023-03-01T03:02:52;18.10;45.80
73322;DHT22;61549;37.044;22.128;2023-03-01T03:05:24;18.20;45.60
73322;DHT22;61549;37.044;22.128;2023-03-01T03:07:51;18.20;45.60
73322;DHT22;61549;37.044;22.128;2023-03-01T03:10:22;18.30;45.70
73322;DHT22;61549;37.044;22.128;2023-03-01T03:12:53;18.30;46.40
73322;DHT22;61549;37.044;22.128;2023-03-01T03:15:21;18.40;46.10
73322;DHT22;61549;37.044;22.128;2023-03-01T03:17:48;18.40;46.00
73322;DHT22;61549;37.044;22.128;2023-03-01T03:20:17;18.30;45.90
73322;DHT22;61549;37.044;22.128;2023-03-01T03:22:51;18.30;45.60
73322;DHT22;61549;37.044;22.128;2023-03-01T03:25:18;18.20;45.90
73322;DHT22;61549;37.044;22.128;2023-03-01T03:28:04;18.20;46.20
73322;DHT22;61549;37.044;22.128;2023-03-01T03:30:36;18.20;46.30
73322;DHT22;61549;37.044;22.128;2023-03-01T03:33:02;18.20;46.80
73322;DHT22;61549;37.044;22.128;2023-03-01T03:35:37;18.20;47.10
73322;DHT22;61549;37.044;22.128;2023-03-01T03:38:06;18.10;47.60
73322;DHT22;61549;37.044;22.128;2023-03-01T03:40:48;18.10;48.10
73322;DHT22;61549;37.044;22.128;2023-03-01T03:43:20;18.10;48.10
73322;DHT22;61549;37.044;22.128;2023-03-01T03:45:48;18.10;48.30
73322;DHT22;61549;37.044;22.128;2023-03-01T03:48:14;18.10;48.40
73322;DHT22;61549;37.044;22.128;2023-03-01T03:50:40;18.10;48.30
73322;DHT22;61549;37.044;22.128;2023-03-01T03:53:09;17.90;48.50
73322;DHT22;61549;37.044;22.128;2023-03-01T03:55:36;17.90;48.70
73322;DHT22;61549;37.044;22.128;2023-03-01T03:58:05;17.90;48.80
73322;DHT22;61549;37.044;22.128;2023-03-01T04:00:44;17.90;48.90
73322;DHT22;61549;37.044;22.128;2023-03-01T04:03:13;18.10;49.30
73322;DHT22;61549;37.044;22.128;2023-03-01T04:05:40;18.00;48.70
73322;DHT22;61549;37.044;22.128;2023-03-01T04:08:06;17.90;48.80
73322;DHT22;61549;37.044;22.128;2023-03-01T04:10:56;17.90;49.10
73322;DHT22;61549;37.044;22.128;2023-03-01T04:13:23;17.90;49.40
73322;DHT22;61549;37.044;22.128;2023-03-01T04:15:51;18.00;49.60
73322;DHT22;61549;37.044;22.128;2023-03-01T04:18:19;18.00;49.50
73322;DHT22;61549;37.044;22.128;2023-03-01T04:20:46;18.00;49.40
73322;DHT22;61549;37.044;22.128;2023-03-01T04:23:17;18.10;49.30
73322;DHT22;61549;37.044;22.128;2023-03-01T04:25:51;18.10;49.20
73322;DHT22;61549;37.044;22.128;2023-03-01T04:28:29;18.20;49.20
73322;DHT22;61549;37.044;22.128;2023-03-01T04:30:56;18.20;49.50
73322;DHT22;61549;37.044;22.128;2023-03-01T04:33:23;18.00;49.70
73322;DHT22;61549;37.044;22.128;2023-03-01T04:35:49;18.00;49.90
73322;DHT22;61549;37.044;22.128;2023-03-01T04:38:16;18.00;50.10
73322;DHT22;61549;37.044;22.128;2023-03-01T04:40:42;18.00;50.00
73322;DHT22;61549;37.044;22.128;2023-03-01T04:43:09;17.90;49.90
73322;DHT22;61549;37.044;22.128;2023-03-01T04:45:35;17.90;50.10
73322;DHT22;61549;37.044;22.128;2023-03-01T04:48:02;18.00;50.30
73322;DHT22;61549;37.044;22.128;2023-03-01T04:50:28;18.00;50.60
73322;DHT22;61549;37.044;22.128;2023-03-01T04:52:54;18.10;50.80
73322;DHT22;61549;37.044;22.128;2023-03-01T04:55:25;18.10;50.00
73322;DHT22;61549;37.044;22.128;2023-03-01T04:57:52;18.00;49.50
73322;DHT22;61549;37.044;22.128;2023-03-01T05:00:18;17.90;49.60
73322;DHT22;61549;37.044;22.128;2023-03-01T05:02:48;17.90;48.70
73322;DHT22;61549;37.044;22.128;2023-03-01T05:05:15;17.90;48.60
73322;DHT22;61549;37.044;22.128;2023-03-01T05:07:41;17.90;48.90
73322;DHT22;61549;37.044;22.128;2023-03-01T05:10:07;17.90;49.00
73322;DHT22;61549;37.044;22.128;2023-03-01T05:12:33;17.90;49.00
73322;DHT22;61549;37.044;22.128;2023-03-01T05:14:59;18.00;49.50
73322;DHT22;61549;37.044;22.128;2023-03-01T05:17:25;18.00;49.60
73322;DHT22;61549;37.044;22.128;2023-03-01T05:19:51;18.00;49.70
73322;DHT22;61549;37.044;22.128;2023-03-01T05:22:16;18.00;49.70
73322;DHT22;61549;37.044;22.128;2023-03-01T05:24:42;18.00;50.00
73322;DHT22;61549;37.044;22.128;2023-03-01T05:27:08;18.10;50.20
73322;DHT22;61549;37.044;22.128;2023-03-01T05:29:34;18.10;50.20
73322;DHT22;61549;37.044;22.128;2023-03-01T05:32:01;18.10;50.20
73322;DHT22;61549;37.044;22.128;2023-03-01T05:34:30;18.10;50.30
73322;DHT22;61549;37.044;22.128;2023-03-01T05:36:57;18.00;50.50
73322;DHT22;61549;37.044;22.128;2023-03-01T05:39:25;18.10;50.70
73322;DHT22;61549;37.044;22.128;2023-03-01T05:41:56;18.10;50.60
73322;DHT22;61549;37.044;22.128;2023-03-01T05:44:31;18.20;50.40
73322;DHT22;61549;37.044;22.128;2023-03-01T05:46:57;18.20;50.40
73322;DHT22;61549;37.044;22.128;2023-03-01T05:49:23;18.20;50.30
73322;DHT22;61549;37.044;22.128;2023-03-01T05:51:51;18.20;50.00
73322;DHT22;61549;37.044;22.128;2023-03-01T05:54:18;18.10;49.80
73322;DHT22;61549;37.044;22.128;2023-03-01T05:56:44;18.10;49.90
73322;DHT22;61549;37.044;22.128;2023-03-01T05:59:10;18.20;49.90
73322;DHT22;61549;37.044;22.128;2023-03-01T06:01:37;18.30;50.10
73322;DHT22;61549;37.044;22.128;2023-03-01T06:04:04;18.30;50.20
73322;DHT22;61549;37.044;22.128;2023-03-01T06:06:33;18.30;50.00
73322;DHT22;61549;37.044;22.128;2023-03-01T06:08:59;18.30;49.80
73322;DHT22;61549;37.044;22.128;2023-03-01T06:11:25;18.30;49.30
73322;DHT22;61549;37.044;22.128;2023-03-01T06:13:51;18.30;49.60
73322;DHT22;61549;37.044;22.128;2023-03-01T06:16:17;18.30;49.60
73322;DHT22;61549;37.044;22.128;2023-03-01T06:18:42;18.40;49.90
73322;DHT22;61549;37.044;22.128;2023-03-01T06:21:09;18.50;50.60
73322;DHT22;61549;37.044;22.128;2023-03-01T06:23:35;18.50;50.60
73322;DHT22;61549;37.044;22.128;2023-03-01T06:26:05;18.50;50.70
73322;DHT22;61549;37.044;22.128;2023-03-01T06:28:31;18.60;50.90
73322;DHT22;61549;37.044;22.128;2023-03-01T06:30:57;18.70;51.20
73322;DHT22;61549;37.044;22.128;2023-03-01T06:33:23;18.70;51.40
73322;DHT22;61549;37.044;22.128;2023-03-01T06:35:50;18.80;51.70
73322;DHT22;61549;37.044;22.128;2023-03-01T06:38:16;18.80;51.70
73322;DHT22;61549;37.044;22.128;2023-03-01T06:40:51;18.90;51.60
73322;DHT22;61549;37.044;22.128;2023-03-01T06:43:17;19.00;51.70
73322;DHT22;61549;37.044;22.128;2023-03-01T06:45:42;19.10;51.80
73322;DHT22;61549;37.044;22.128;2023-03-01T06:48:08;19.10;51.80
73322;DHT22;61549;37.044;22.128;2023-03-01T06:50:35;19.20;51.80
73322;DHT22;61549;37.044;22.128;2023-03-01T06:53:01;19.40;51.80
73322;DHT22;61549;37.044;22.128;2023-03-01T06:55:26;19.50;51.70
73322;DHT22;61549;37.044;22.128;2023-03-01T06:58:00;19.50;51.00
73322;DHT22;61549;37.044;22.128;2023-03-01T07:00:27;19.60;50.50
73322;DHT22;61549;37.044;22.128;2023-03-01T07:02:53;19.60;50.70
73322;DHT22;61549;37.044;22.128;2023-03-01T07:05:19;19.60;49.80
73322;DHT22;61549;37.044;22.128;2023-03-01T07:07:45;19.60;49.50
73322;DHT22;61549;37.044;22.128;2023-03-01T07:10:11;19.70;49.60
73322;DHT22;61549;37.044;22.128;2023-03-01T07:12:37;19.70;49.40
73322;DHT22;61549;37.044;22.128;2023-03-01T07:15:04;19.80;49.30
73322;DHT22;61549;37.044;22.128;2023-03-01T07:17:30;19.90;49.10
73322;DHT22;61549;37.044;22.128;2023-03-01T07:19:56;20.00;48.70
73322;DHT22;61549;37.044;22.128;2023-03-01T07:22:22;20.00;48.90
73322;DHT22;61549;37.044;22.128;2023-03-01T07:24:48;20.10;49.10
73322;DHT22;61549;37.044;22.128;2023-03-01T07:27:14;20.10;48.70
73322;DHT22;61549;37.044;22.128;2023-03-01T07:29:55;20.20;48.30
73322;DHT22;61549;37.044;22.128;2023-03-01T07:32:22;20.30;49.30
73322;DHT22;61549;37.044;22.128;2023-03-01T07:38:10;20.40;49.10
73322;DHT22;61549;37.044;22.128;2023-03-01T07:40:36;20.50;47.80
73322;DHT22;61549;37.044;22.128;2023-03-01T07:43:02;20.60;47.70
73322;DHT22;61549;37.044;22.128;2023-03-01T07:45:28;20.70;47.90
73322;DHT22;61549;37.044;22.128;2023-03-01T07:47:55;20.80;48.30
73322;DHT22;61549;37.044;22.128;2023-03-01T07:50:22;20.90;48.80
73322;DHT22;61549;37.044;22.128;2023-03-01T07:52:51;21.00;49.20
73322;DHT22;61549;37.044;22.128;2023-03-01T07:55:17;21.10;49.80
73322;DHT22;61549;37.044;22.128;2023-03-01T07:57:44;21.20;50.60
73322;DHT22;61549;37.044;22.128;2023-03-01T08:00:11;21.30;51.00
73322;DHT22;61549;37.044;22.128;2023-03-01T08:02:38;21.40;50.30
73322;DHT22;61549;37.044;22.128;2023-03-01T08:05:23;21.50;51.20
73322;DHT22;61549;37.044;22.128;2023-03-01T08:07:49;21.50;52.40
73322;DHT22;61549;37.044;22.128;2023-03-01T08:10:15;21.60;51.90
73322;DHT22;61549;37.044;22.128;2023-03-01T08:12:41;21.50;51.10
73322;DHT22;61549;37.044;22.128;2023-03-01T08:15:08;21.80;50.90
73322;DHT22;61549;37.044;22.128;2023-03-01T08:17:34;21.90;50.30
73322;DHT22;61549;37.044;22.128;2023-03-01T08:20:00;22.00;50.00
73322;DHT22;61549;37.044;22.128;2023-03-01T08:22:25;22.00;50.10
73322;DHT22;61549;37.044;22.128;2023-03-01T08:24:51;22.00;50.30
73322;DHT22;61549;37.044;22.128;2023-03-01T08:27:17;22.10;50.00
73322;DHT22;61549;37.044;22.128;2023-03-01T08:29:43;22.20;50.20
73322;DHT22;61549;37.044;22.128;2023-03-01T08:32:09;22.40;50.20
73322;DHT22;61549;37.044;22.128;2023-03-01T08:34:35;22.50;49.90
73322;DHT22;61549;37.044;22.128;2023-03-01T08:37:01;22.30;50.00
73322;DHT22;61549;37.044;22.128;2023-03-01T08:39:27;22.40;49.90
73322;DHT22;61549;37.044;22.128;2023-03-01T08:41:53;22.70;48.80
73322;DHT22;61549;37.044;22.128;2023-03-01T08:44:19;22.80;48.50
73322;DHT22;61549;37.044;22.128;2023-03-01T08:46:46;23.00;49.10
73322;DHT22;61549;37.044;22.128;2023-03-01T08:52:34;23.00;49.40
73322;DHT22;61549;37.044;22.128;2023-03-01T08:55:00;23.20;48.80
73322;DHT22;61549;37.044;22.128;2023-03-01T08:57:27;23.20;48.90
73322;DHT22;61549;37.044;22.128;2023-03-01T08:59:53;23.40;48.90
73322;DHT22;61549;37.044;22.128;2023-03-01T09:02:21;23.60;48.00
73322;DHT22;61549;37.044;22.128;2023-03-01T09:04:47;23.60;47.40
73322;DHT22;61549;37.044;22.128;2023-03-01T09:07:13;23.60;47.20
73322;DHT22;61549;37.044;22.128;2023-03-01T09:09:39;23.70;47.10
73322;DHT22;61549;37.044;22.128;2023-03-01T09:12:05;23.70;47.10
73322;DHT22;61549;37.044;22.128;2023-03-01T09:14:31;23.80;47.10
73322;DHT22;61549;37.044;22.128;2023-03-01T09:16:57;23.80;47.50
73322;DHT22;61549;37.044;22.128;2023-03-01T09:19:23;23.80;46.20
73322;DHT22;61549;37.044;22.128;2023-03-01T09:21:49;23.80;46.10
73322;DHT22;61549;37.044;22.128;2023-03-01T09:24:20;23.90;46.10
73322;DHT22;61549;37.044;22.128;2023-03-01T09:26:46;23.90;46.10
73322;DHT22;61549;37.044;22.128;2023-03-01T09:29:14;23.90;45.40
73322;DHT22;61549;37.044;22.128;2023-03-01T09:31:40;24.00;43.90
73322;DHT22;61549;37.044;22.128;2023-03-01T09:34:06;24.00;44.50
73322;DHT22;61549;37.044;22.128;2023-03-01T09:36:32;24.10;45.00
73322;DHT22;61549;37.044;22.128;2023-03-01T09:38:58;24.10;43.30
73322;DHT22;61549;37.044;22.128;2023-03-01T09:41:45;24.10;43.90
73322;DHT22;61549;37.044;22.128;2023-03-01T09:47:03;24.50;43.60
73322;DHT22;61549;37.044;22.128;2023-03-01T09:49:34;24.60;42.10
73322;DHT22;61549;37.044;22.128;2023-03-01T09:54:47;24.60;42.00
73322;DHT22;61549;37.044;22.128;2023-03-01T09:57:26;24.50;42.20
73322;DHT22;61549;37.044;22.128;2023-03-01T10:00:30;24.40;42.90
73322;DHT22;61549;37.044;22.128;2023-03-01T10:02:57;24.60;42.50
73322;DHT22;61549;37.044;22.128;2023-03-01T10:05:48;24.90;43.00
73322;DHT22;61549;37.044;22.128;2023-03-01T10:10:52;25.10;41.70
73322;DHT22;61549;37.044;22.128;2023-03-01T10:16:03;25.00;41.10
73322;DHT22;61549;37.044;22.128;2023-03-01T10:18:31;24.90;41.20
73322;DHT22;61549;37.044;22.128;2023-03-01T10:21:13;24.90;40.80
73322;DHT22;61549;37.044;22.128;2023-03-01T10:23:40;24.70;41.30
73322;DHT22;61549;37.044;22.128;2023-03-01T10:29:08;24.90;40.60
73322;DHT22;61549;37.044;22.128;2023-03-01T10:31:53;24.90;41.10
73322;DHT22;61549;37.044;22.128;2023-03-01T10:36:55;25.10;39.90
73322;DHT22;61549;37.044;22.128;2023-03-01T10:39:24;25.20;40.50
73322;DHT22;61549;37.044;22.128;2023-03-01T10:42:19;25.20;40.60
73322;DHT22;61549;37.044;22.128;2023-03-01T10:44:47;25.30;40.00
73322;DHT22;61549;37.044;22.128;2023-03-01T10:47:27;25.50;39.70
73322;DHT22;61549;37.044;22.128;2023-03-01T10:50:08;25.40;40.00
73322;DHT22;61549;37.044;22.128;2023-03-01T10:52:56;25.40;40.30
73322;DHT22;61549;37.044;22.128;2023-03-01T10:55:37;25.20;40.60
73322;DHT22;61549;37.044;22.128;2023-03-01T10:58:21;25.40;40.50
73322;DHT22;61549;37.044;22.128;2023-03-01T11:03:42;25.60;39.60
73322;DHT22;61549;37.044;22.128;2023-03-01T11:08:47;25.30;40.40
73322;DHT22;61549;37.044;22.128;2023-03-01T11:11:26;25.10;40.40
73322;DHT22;61549;37.044;22.128;2023-03-01T11:14:12;24.90;40.50
73322;DHT22;61549;37.044;22.128;2023-03-01T11:16:47;24.70;40.60
73322;DHT22;61549;37.044;22.128;2023-03-01T11:19:17;24.70;40.80
73322;DHT22;61549;37.044;22.128;2023-03-01T11:22:14;24.90;40.40
73322;DHT22;61549;37.044;22.128;2023-03-01T11:24:50;24.90;40.20
73322;DHT22;61549;37.044;22.128;2023-03-01T11:30:21;25.10;40.80
73322;DHT22;61549;37.044;22.128;2023-03-01T11:36:01;25.10;39.70
73322;DHT22;61549;37.044;22.128;2023-03-01T11:38:34;25.00;39.40
73322;DHT22;61549;37.044;22.128;2023-03-01T11:41:25;25.00;40.10
73322;DHT22;61549;37.044;22.128;2023-03-01T11:49:43;25.20;38.90
73322;DHT22;61549;37.044;22.128;2023-03-01T11:52:42;25.30;38.90
73322;DHT22;61549;37.044;22.128;2023-03-01T12:03:51;25.00;39.50
73322;DHT22;61549;37.044;22.128;2023-03-01T12:37:47;25.20;38.40
73322;DHT22;61549;37.044;22.128;2023-03-01T12:40:33;25.40;38.50
73322;DHT22;61549;37.044;22.128;2023-03-01T12:43:17;25.50;38.50
73322;DHT22;61549;37.044;22.128;2023-03-01T12:48:47;25.50;37.40
73322;DHT22;61549;37.044;22.128;2023-03-01T12:51:22;25.40;37.40
73322;DHT22;61549;37.044;22.128;2023-03-01T12:53:51;25.30;37.90
73322;DHT22;61549;37.044;22.128;2023-03-01T12:56:22;25.40;38.00
73322;DHT22;61549;37.044;22.128;2023-03-01T12:59:21;25.30;38.00
73322;DHT22;61549;37.044;22.128;2023-03-01T13:02:05;25.10;37.80
73322;DHT22;61549;37.044;22.128;2023-03-01T13:07:44;25.00;38.40
73322;DHT22;61549;37.044;22.128;2023-03-01T13:10:41;24.90;38.00
73322;DHT22;61549;37.044;22.128;2023-03-01T13:15:46;24.70;39.20
73322;DHT22;61549;37.044;22.128;2023-03-01T13:20:49;24.60;39.10
73322;DHT22;61549;37.044;22.128;2023-03-01T13:28:38;24.80;38.40
73322;DHT22;61549;37.044;22.128;2023-03-01T13:33:55;24.90;38.60
73322;DHT22;61549;37.044;22.128;2023-03-01T13:49:47;25.10;38.50
73322;DHT22;61549;37.044;22.128;2023-03-01T13:54:53;25.10;37.90
73322;DHT22;61549;37.044;22.128;2023-03-01T13:57:26;25.00;38.10
73322;DHT22;61549;37.044;22.128;2023-03-01T13:59:54;25.10;37.90
73322;DHT22;61549;37.044;22.128;2023-03-01T14:02:23;25.10;38.10
73322;DHT22;61549;37.044;22.128;2023-03-01T14:05:01;25.10;38.60
73322;DHT22;61549;37.044;22.128;2023-03-01T14:07:28;25.20;37.70
73322;DHT22;61549;37.044;22.128;2023-03-01T14:10:03;25.30;37.40
73322;DHT22;61549;37.044;22.128;2023-03-01T14:15:19;25.00;37.50
73322;DHT22;61549;37.044;22.128;2023-03-01T14:17:55;24.90;36.70
73322;DHT22;61549;37.044;22.128;2023-03-01T14:20:26;24.90;37.40
73322;DHT22;61549;37.044;22.128;2023-03-01T14:22:55;24.90;37.30
73322;DHT22;61549;37.044;22.128;2023-03-01T14:25:35;24.90;37.40
73322;DHT22;61549;37.044;22.128;2023-03-01T14:28:23;24.90;37.60
73322;DHT22;61549;37.044;22.128;2023-03-01T14:30:52;25.00;37.10
73322;DHT22;61549;37.044;22.128;2023-03-01T14:33:30;24.90;36.60
73322;DHT22;61549;37.044;22.128;2023-03-01T14:36:09;24.90;37.10
73322;DHT22;61549;37.044;22.128;2023-03-01T14:38:45;24.90;37.00
73322;DHT22;61549;37.044;22.128;2023-03-01T14:41:25;24.70;37.80
73322;DHT22;61549;37.044;22.128;2023-03-01T14:43:55;24.60;37.90
73322;DHT22;61549;37.044;22.128;2023-03-01T14:46:28;24.60;38.30
73322;DHT22;61549;37.044;22.128;2023-03-01T14:49:03;24.70;38.00
73322;DHT22;61549;37.044;22.128;2023-03-01T14:51:30;24.70;38.10
73322;DHT22;61549;37.044;22.128;2023-03-01T14:53:56;24.70;38.20
73322;DHT22;61549;37.044;22.128;2023-03-01T14:56:22;24.60;38.90
73322;DHT22;61549;37.044;22.128;2023-03-01T14:58:52;24.50;39.80
73322;DHT22;61549;37.044;22.128;2023-03-01T15:01:19;24.50;40.20
73322;DHT22;61549;37.044;22.128;2023-03-01T15:03:49;24.50;40.30
73322;DHT22;61549;37.044;22.128;2023-03-01T15:06:19;24.50;40.30
73322;DHT22;61549;37.044;22.128;2023-03-01T15:08:51;24.40;40.60
73322;DHT22;61549;37.044;22.128;2023-03-01T15:13:51;24.30;41.30
73322;DHT22;61549;37.044;22.128;2023-03-01T15:16:29;24.20;41.60
73322;DHT22;61549;37.044;22.128;2023-03-01T15:18:59;24.10;41.40
73322;DHT22;61549;37.044;22.128;2023-03-01T15:21:36;24.10;42.00
73322;DHT22;61549;37.044;22.128;2023-03-01T15:26:49;24.10;42.40
73322;DHT22;61549;37.044;22.128;2023-03-01T15:29:22;24.20;42.10
73322;DHT22;61549;37.044;22.128;2023-03-01T15:32:05;24.00;42.50
73322;DHT22;61549;37.044;22.128;2023-03-01T15:34:38;24.00;42.90
73322;DHT22;61549;37.044;22.128;2023-03-01T15:37:15;23.80;43.10
73322;DHT22;61549;37.044;22.128;2023-03-01T15:39:54;23.70;43.50
73322;DHT22;61549;37.044;22.128;2023-03-01T15:45:21;23.70;42.80
73322;DHT22;61549;37.044;22.128;2023-03-01T15:47:51;23.60;42.90
73322;DHT22;61549;37.044;22.128;2023-03-01T15:50:32;23.60;43.20
73322;DHT22;61549;37.044;22.128;2023-03-01T15:56:46;23.50;43.90
73322;DHT22;61549;37.044;22.128;2023-03-01T15:59:12;23.60;44.50
73322;DHT22;61549;37.044;22.128;2023-03-01T16:01:41;23.50;45.70
73322;DHT22;61549;37.044;22.128;2023-03-01T16:04:10;23.40;44.70
73322;DHT22;61549;37.044;22.128;2023-03-01T16:06:38;23.40;45.50
73322;DHT22;61549;37.044;22.128;2023-03-01T16:09:05;23.20;45.80
73322;DHT22;61549;37.044;22.128;2023-03-01T16:11:30;23.00;46.10
73322;DHT22;61549;37.044;22.128;2023-03-01T16:13:58;22.90;46.80
73322;DHT22;61549;37.044;22.128;2023-03-01T16:16:24;22.80;46.90
73322;DHT22;61549;37.044;22.128;2023-03-01T16:18:49;22.80;47.50
73322;DHT22;61549;37.044;22.128;2023-03-01T16:21:22;22.70;47.90
73322;DHT22;61549;37.044;22.128;2023-03-01T16:23:49;22.60;48.70
73322;DHT22;61549;37.044;22.128;2023-03-01T16:26:15;22.50;49.00
73322;DHT22;61549;37.044;22.128;2023-03-01T16:28:42;22.30;48.90
73322;DHT22;61549;37.044;22.128;2023-03-01T16:31:08;22.20;49.30
73322;DHT22;61549;37.044;22.128;2023-03-01T16:33:35;22.20;49.60
73322;DHT22;61549;37.044;22.128;2023-03-01T16:36:11;22.00;49.60
73322;DHT22;61549;37.044;22.128;2023-03-01T16:38:37;22.00;49.60
73322;DHT22;61549;37.044;22.128;2023-03-01T16:41:04;21.90;49.50
73322;DHT22;61549;37.044;22.128;2023-03-01T16:43:31;21.90;49.60
73322;DHT22;61549;37.044;22.128;2023-03-01T16:45:57;21.80;49.30
73322;DHT22;61549;37.044;22.128;2023-03-01T16:48:24;21.80;49.20
73322;DHT22;61549;37.044;22.128;2023-03-01T16:51:00;21.80;49.10
73322;DHT22;61549;37.044;22.128;2023-03-01T16:53:27;21.80;49.10
73322;DHT22;61549;37.044;22.128;2023-03-01T16:55:57;21.70;49.20
73322;DHT22;61549;37.044;22.128;2023-03-01T16:58:23;21.70;49.20
73322;DHT22;61549;37.044;22.128;2023-03-01T17:00:53;21.70;49.50
73322;DHT22;61549;37.044;22.128;2023-03-01T17:03:24;21.60;49.70
73322;DHT22;61549;37.044;22.128;2023-03-01T17:05:50;21.60;49.40
73322;DHT22;61549;37.044;22.128;2023-03-01T17:08:16;21.50;49.40
73322;DHT22;61549;37.044;22.128;2023-03-01T17:10:42;21.50;48.90
73322;DHT22;61549;37.044;22.128;2023-03-01T17:13:09;21.50;48.90
73322;DHT22;61549;37.044;22.128;2023-03-01T17:15:39;21.50;49.20
73322;DHT22;61549;37.044;22.128;2023-03-01T17:18:06;21.40;48.80
73322;DHT22;61549;37.044;22.128;2023-03-01T17:20:31;21.40;48.60
73322;DHT22;61549;37.044;22.128;2023-03-01T17:22:57;21.40;48.60
73322;DHT22;61549;37.044;22.128;2023-03-01T17:25:24;21.40;48.50
73322;DHT22;61549;37.044;22.128;2023-03-01T17:27:50;21.50;48.50
73322;DHT22;61549;37.044;22.128;2023-03-01T17:30:16;21.40;48.40
73322;DHT22;61549;37.044;22.128;2023-03-01T17:32:42;21.30;48.40
73322;DHT22;61549;37.044;22.128;2023-03-01T17:35:08;21.30;48.60
73322;DHT22;61549;37.044;22.128;2023-03-01T17:37:37;21.30;48.90
73322;DHT22;61549;37.044;22.128;2023-03-01T17:40:05;21.20;48.60
73322;DHT22;61549;37.044;22.128;2023-03-01T17:42:32;21.10;48.70
73322;DHT22;61549;37.044;22.128;2023-03-01T17:44:58;21.10;48.60
73322;DHT22;61549;37.044;22.128;2023-03-01T17:47:25;21.10;49.10
73322;DHT22;61549;37.044;22.128;2023-03-01T17:49:50;21.00;49.20
73322;DHT22;61549;37.044;22.128;2023-03-01T17:52:16;21.00;49.40
73322;DHT22;61549;37.044;22.128;2023-03-01T17:54:42;20.80;49.20
73322;DHT22;61549;37.044;22.128;2023-03-01T17:57:08;20.60;49.20